sensor_id;sensor_type;location;lat;lon;timestamp;pressure;altitude;pressure_sealevel;temperature;humidity
57779;BME280;43608;49.486;9.640;2022-11-11T00:00:05;100144.03;;;2.58;92.84
57779;BME280;43608;49.486;9.640;2022-11-11T00:00:36;100136.03;;;2.55;92.83
57779;BME280;43608;49.486;9.640;2022-11-11T00:01:11;100167.25;;;2.69;92.86
57779;BME280;43608;49.486;9.640;2022-11-11T00:01:42;100161.88;;;2.66;92.61
57779;BME280;43608;49.486;9.640;2022-11-11T00:02:12;100163.56;;;2.65;92.59
57779;BME280;43608;49.486;9.640;2022-11-11T00:02:42;100151.97;;;2.60;92.65
57779;BME280;43608;49.486;9.640;2022-11-11T00:03:14;100122.22;;;2.41;92.83
57779;BME280;43608;49.486;9.640;2022-11-11T00:03:45;100157.13;;;2.58;92.59
57779;BME280;43608;49.486;9.640;2022-11-11T00:04:15;100149.06;;;2.54;92.77
57779;BME280;43608;49.486;9.640;2022-11-11T00:04:45;100159.81;;;2.60;92.42
57779;BME280;43608;49.486;9.640;2022-11-11T00:05:16;100158.03;;;2.59;92.82
57779;BME280;43608;49.486;9.640;2022-11-11T00:05:46;100164.75;;;2.54;92.47
57779;BME280;43608;49.486;9.640;2022-11-11T00:06:17;100093.06;;;2.17;92.88
57779;BME280;43608;49.486;9.640;2022-11-11T00:06:47;100147.75;;;2.45;92.51
57779;BME280;43608;49.486;9.640;2022-11-11T00:07:18;100168.94;;;2.50;92.74
57779;BME280;43608;49.486;9.640;2022-11-11T00:07:48;100170.06;;;2.55;92.81
57779;BME280;43608;49.486;9.640;2022-11-11T00:08:21;100165.66;;;2.54;92.71
57779;BME280;43608;49.486;9.640;2022-11-11T00:08:51;100168.13;;;2.51;92.61
57779;BME280;43608;49.486;9.640;2022-11-11T00:09:21;100165.31;;;2.48;92.86
57779;BME280;43608;49.486;9.640;2022-11-11T00:09:52;100128.63;;;2.30;92.51
57779;BME280;43608;49.486;9.640;2022-11-11T00:10:22;100133.97;;;2.31;93.09
57779;BME280;43608;49.486;9.640;2022-11-11T00:10:52;100169.06;;;2.53;93.09
57779;BME280;43608;49.486;9.640;2022-11-11T00:11:23;100161.56;;;2.43;93.05
57779;BME280;43608;49.486;9.640;2022-11-11T00:11:53;100140.22;;;2.35;92.59
57779;BME280;43608;49.486;9.640;2022-11-11T00:12:23;100151.69;;;2.37;93.16
57779;BME280;43608;49.486;9.640;2022-11-11T00:13:00;100145.47;;;2.35;92.92
57779;BME280;43608;49.486;9.640;2022-11-11T00:13:31;100174.16;;;2.50;93.35
57779;BME280;43608;49.486;9.640;2022-11-11T00:14:02;100160.00;;;2.46;93.24
57779;BME280;43608;49.486;9.640;2022-11-11T00:14:32;100145.66;;;2.38;93.11
57779;BME280;43608;49.486;9.640;2022-11-11T00:15:03;100160.81;;;2.45;93.25
57779;BME280;43608;49.486;9.640;2022-11-11T00:15:36;100168.13;;;2.51;92.92
57779;BME280;43608;49.486;9.640;2022-11-11T00:16:18;100161.81;;;2.47;93.32
57779;BME280;43608;49.486;9.640;2022-11-11T00:16:48;100152.81;;;2.42;93.35
57779;BME280;43608;49.486;9.640;2022-11-11T00:17:37;100168.13;;;2.51;93.38
57779;BME280;43608;49.486;9.640;2022-11-11T00:18:27;100155.50;;;2.44;93.10
57779;BME280;43608;49.486;9.640;2022-11-11T00:19:15;100166.31;;;2.50;93.21
57779;BME280;43608;49.486;9.640;2022-11-11T00:20:05;100137.63;;;2.35;93.44
57779;BME280;43608;49.486;9.640;2022-11-11T00:20:59;100153.88;;;2.46;93.33
57779;BME280;43608;49.486;9.640;2022-11-11T00:21:48;100155.66;;;2.47;93.41
57779;BME280;43608;49.486;9.640;2022-11-11T00:22:37;100152.09;;;2.45;92.99
57779;BME280;43608;49.486;9.640;2022-11-11T00:23:27;100147.00;;;2.48;92.85
57779;BME280;43608;49.486;9.640;2022-11-11T00:24:20;100155.78;;;2.48;92.95
57779;BME280;43608;49.486;9.640;2022-11-11T00:25:12;100144.91;;;2.41;93.01
57779;BME280;43608;49.486;9.640;2022-11-11T00:25:42;100153.72;;;2.43;92.94
57779;BME280;43608;49.486;9.640;2022-11-11T00:26:13;100149.41;;;2.43;92.81
57779;BME280;43608;49.486;9.640;2022-11-11T00:26:44;100150.28;;;2.44;93.19
57779;BME280;43608;49.486;9.640;2022-11-11T00:27:14;100151.09;;;2.43;93.29
57779;BME280;43608;49.486;9.640;2022-11-11T00:27:46;100152.09;;;2.45;93.38
57779;BME280;43608;49.486;9.640;2022-11-11T00:28:16;100141.38;;;2.40;93.22
57779;BME280;43608;49.486;9.640;2022-11-11T00:28:47;100143.16;;;2.41;92.88
57779;BME280;43608;49.486;9.640;2022-11-11T00:29:17;100127.88;;;2.33;93.39
57779;BME280;43608;49.486;9.640;2022-11-11T00:29:50;100141.38;;;2.40;93.17
57779;BME280;43608;49.486;9.640;2022-11-11T00:30:20;100151.09;;;2.43;93.48
57779;BME280;43608;49.486;9.640;2022-11-11T00:30:50;100132.31;;;2.34;93.06
57779;BME280;43608;49.486;9.640;2022-11-11T00:31:21;100134.09;;;2.35;92.95
57779;BME280;43608;49.486;9.640;2022-11-11T00:31:51;100125.94;;;2.28;93.42
57779;BME280;43608;49.486;9.640;2022-11-11T00:32:40;100141.16;;;2.36;93.49
57779;BME280;43608;49.486;9.640;2022-11-11T00:33:11;100153.56;;;2.40;93.42
57779;BME280;43608;49.486;9.640;2022-11-11T00:33:41;100156.25;;;2.41;93.54
57779;BME280;43608;49.486;9.640;2022-11-11T00:34:11;100136.59;;;2.31;93.24
57779;BME280;43608;49.486;9.640;2022-11-11T00:34:42;100138.34;;;2.33;93.44
57779;BME280;43608;49.486;9.640;2022-11-11T00:35:32;100150.03;;;2.39;93.50
57779;BME280;43608;49.486;9.640;2022-11-11T00:36:21;100149.97;;;2.38;93.60
57779;BME280;43608;49.486;9.640;2022-11-11T00:36:51;100140.06;;;2.32;93.38
57779;BME280;43608;49.486;9.640;2022-11-11T00:37:22;100140.97;;;2.33;93.61
57779;BME280;43608;49.486;9.640;2022-11-11T00:37:52;100149.00;;;2.36;93.50
57779;BME280;43608;49.486;9.640;2022-11-11T00:38:22;100139.19;;;2.31;93.53
57779;BME280;43608;49.486;9.640;2022-11-11T00:39:16;100157.81;;;2.38;93.55
57779;BME280;43608;49.486;9.640;2022-11-11T00:39:46;100130.09;;;2.25;93.42
57779;BME280;43608;49.486;9.640;2022-11-11T00:40:17;100152.34;;;2.33;93.75
57779;BME280;43608;49.486;9.640;2022-11-11T00:40:47;100161.34;;;2.38;93.32
57779;BME280;43608;49.486;9.640;2022-11-11T00:41:20;100151.53;;;2.34;93.39
57779;BME280;43608;49.486;9.640;2022-11-11T00:41:50;100129.94;;;2.22;93.18
57779;BME280;43608;49.486;9.640;2022-11-11T00:42:20;100155.03;;;2.35;93.39
57779;BME280;43608;49.486;9.640;2022-11-11T00:42:51;100139.69;;;2.24;93.51
57779;BME280;43608;49.486;9.640;2022-11-11T00:43:21;100151.44;;;2.33;94.07
57779;BME280;43608;49.486;9.640;2022-11-11T00:43:51;100160.19;;;2.33;93.39
57779;BME280;43608;49.486;9.640;2022-11-11T00:44:22;100154.91;;;2.31;93.79
57779;BME280;43608;49.486;9.640;2022-11-11T00:44:52;100155.72;;;2.30;93.75
57779;BME280;43608;49.486;9.640;2022-11-11T00:45:23;100047.94;;;1.70;93.54
57779;BME280;43608;49.486;9.640;2022-11-11T00:45:54;100091.91;;;1.94;93.41
57779;BME280;43608;49.486;9.640;2022-11-11T00:46:44;100153.97;;;2.31;93.86
57779;BME280;43608;49.486;9.640;2022-11-11T00:47:33;100159.94;;;2.28;93.58
57779;BME280;43608;49.486;9.640;2022-11-11T00:48:22;100175.91;;;2.33;93.95
57779;BME280;43608;49.486;9.640;2022-11-11T00:49:11;100098.50;;;1.87;93.91
57779;BME280;43608;49.486;9.640;2022-11-11T00:50:00;100170.47;;;2.30;93.50
57779;BME280;43608;49.486;9.640;2022-11-11T00:50:49;100155.84;;;2.17;93.97
57779;BME280;43608;49.486;9.640;2022-11-11T00:51:29;100172.06;;;2.26;93.85
57779;BME280;43608;49.486;9.640;2022-11-11T00:51:59;100168.31;;;2.21;93.75
57779;BME280;43608;49.486;9.640;2022-11-11T00:52:29;100118.78;;;1.91;93.77
57779;BME280;43608;49.486;9.640;2022-11-11T00:53:03;100169.13;;;2.20;93.47
57779;BME280;43608;49.486;9.640;2022-11-11T00:53:33;100141.34;;;2.06;93.86
57779;BME280;43608;49.486;9.640;2022-11-11T00:54:06;100151.22;;;2.11;93.53
57779;BME280;43608;49.486;9.640;2022-11-11T00:54:36;100177.19;;;2.25;93.93
57779;BME280;43608;49.486;9.640;2022-11-11T00:55:07;100180.72;;;2.25;93.95
57779;BME280;43608;49.486;9.640;2022-11-11T00:55:37;100158.97;;;2.10;93.60
57779;BME280;43608;49.486;9.640;2022-11-11T00:56:08;100181.47;;;2.23;93.75
57779;BME280;43608;49.486;9.640;2022-11-11T00:56:38;100170.91;;;2.21;93.79
57779;BME280;43608;49.486;9.640;2022-11-11T00:57:09;100168.13;;;2.18;93.50
57779;BME280;43608;49.486;9.640;2022-11-11T00:57:39;100149.19;;;2.06;94.14
57779;BME280;43608;49.486;9.640;2022-11-11T00:58:10;100176.03;;;2.20;94.26
57779;BME280;43608;49.486;9.640;2022-11-11T00:58:40;100173.53;;;2.21;94.03
57779;BME280;43608;49.486;9.640;2022-11-11T00:59:11;100168.13;;;2.18;94.17
57779;BME280;43608;49.486;9.640;2022-11-11T00:59:41;100160.78;;;2.11;93.72
57779;BME280;43608;49.486;9.640;2022-11-11T01:00:13;100134.03;;;2.00;93.78
57779;BME280;43608;49.486;9.640;2022-11-11T01:00:43;100168.03;;;2.17;93.93
57779;BME280;43608;49.486;9.640;2022-11-11T01:01:14;100172.63;;;2.21;94.06
57779;BME280;43608;49.486;9.640;2022-11-11T01:01:45;100167.16;;;2.16;93.99
57779;BME280;43608;49.486;9.640;2022-11-11T01:02:15;100143.88;;;2.04;94.04
57779;BME280;43608;49.486;9.640;2022-11-11T01:02:46;100172.53;;;2.19;94.09
57779;BME280;43608;49.486;9.640;2022-11-11T01:03:16;100161.00;;;2.15;94.13
57779;BME280;43608;49.486;9.640;2022-11-11T01:03:46;100166.44;;;2.19;94.55
57779;BME280;43608;49.486;9.640;2022-11-11T01:04:17;100142.16;;;2.05;94.62
57779;BME280;43608;49.486;9.640;2022-11-11T01:04:47;100147.28;;;2.03;94.45
57779;BME280;43608;49.486;9.640;2022-11-11T01:05:17;100159.94;;;2.12;94.39
57779;BME280;43608;49.486;9.640;2022-11-11T01:05:48;100150.13;;;2.08;94.38
57779;BME280;43608;49.486;9.640;2022-11-11T01:06:18;100149.31;;;2.09;94.40
57779;BME280;43608;49.486;9.640;2022-11-11T01:06:49;100160.94;;;2.14;94.54
57779;BME280;43608;49.486;9.640;2022-11-11T01:07:19;100160.03;;;2.13;94.33
57779;BME280;43608;49.486;9.640;2022-11-11T01:07:50;100168.94;;;2.17;94.75
57779;BME280;43608;49.486;9.640;2022-11-11T01:08:24;100172.47;;;2.18;94.65
57779;BME280;43608;49.486;9.640;2022-11-11T01:08:54;100161.81;;;2.14;94.73
57779;BME280;43608;49.486;9.640;2022-11-11T01:09:25;100160.94;;;2.14;94.36
57779;BME280;43608;49.486;9.640;2022-11-11T01:09:55;100160.03;;;2.13;94.60
57779;BME280;43608;49.486;9.640;2022-11-11T01:10:25;100167.16;;;2.16;94.64
57779;BME280;43608;49.486;9.640;2022-11-11T01:11:13;100169.03;;;2.19;94.52
57779;BME280;43608;49.486;9.640;2022-11-11T01:11:43;100159.06;;;2.11;94.63
57779;BME280;43608;49.486;9.640;2022-11-11T01:12:14;100160.03;;;2.13;94.61
57779;BME280;43608;49.486;9.640;2022-11-11T01:12:45;100161.81;;;2.14;94.67
57779;BME280;43608;49.486;9.640;2022-11-11T01:13:21;100169.94;;;2.19;95.07
57779;BME280;43608;49.486;9.640;2022-11-11T01:13:51;100144.59;;;2.02;94.60
57779;BME280;43608;49.486;9.640;2022-11-11T01:14:22;100166.25;;;2.15;94.79
57779;BME280;43608;49.486;9.640;2022-11-11T01:14:52;100174.34;;;2.20;94.64
57779;BME280;43608;49.486;9.640;2022-11-11T01:15:22;100164.28;;;2.11;94.68
57779;BME280;43608;49.486;9.640;2022-11-11T01:15:58;100174.34;;;2.20;94.68
57779;BME280;43608;49.486;9.640;2022-11-11T01:16:29;100181.06;;;2.15;95.15
57779;BME280;43608;49.486;9.640;2022-11-11T01:16:59;100168.13;;;2.18;94.75
57779;BME280;43608;49.486;9.640;2022-11-11T01:17:29;100158.06;;;2.09;95.10
57779;BME280;43608;49.486;9.640;2022-11-11T01:18:00;100172.47;;;2.18;95.18
57779;BME280;43608;49.486;9.640;2022-11-11T01:18:30;100162.66;;;2.13;95.23
57779;BME280;43608;49.486;9.640;2022-11-11T01:19:01;100183.16;;;2.22;94.96
57779;BME280;43608;49.486;9.640;2022-11-11T01:19:31;100180.31;;;2.18;94.92
57779;BME280;43608;49.486;9.640;2022-11-11T01:20:01;100166.09;;;2.12;95.52
57779;BME280;43608;49.486;9.640;2022-11-11T01:20:32;100191.94;;;2.23;95.23
57779;BME280;43608;49.486;9.640;2022-11-11T01:21:35;100140.84;;;1.96;95.20
57779;BME280;43608;49.486;9.640;2022-11-11T01:22:05;100164.03;;;2.07;95.28
57779;BME280;43608;49.486;9.640;2022-11-11T01:22:35;100184.00;;;2.21;95.42
57779;BME280;43608;49.486;9.640;2022-11-11T01:23:07;100188.31;;;2.21;95.03
57779;BME280;43608;49.486;9.640;2022-11-11T01:23:39;100189.22;;;2.21;95.28
57779;BME280;43608;49.486;9.640;2022-11-11T01:24:10;100173.69;;;2.08;95.37
57779;BME280;43608;49.486;9.640;2022-11-11T01:24:41;100117.28;;;1.80;95.25
57779;BME280;43608;49.486;9.640;2022-11-11T01:25:11;100184.63;;;2.17;95.40
57779;BME280;43608;49.486;9.640;2022-11-11T01:25:42;100164.53;;;2.00;95.38
57779;BME280;43608;49.486;9.640;2022-11-11T01:26:21;100189.84;;;2.17;94.89
57779;BME280;43608;49.486;9.640;2022-11-11T01:26:52;100196.81;;;2.17;95.12
57779;BME280;43608;49.486;9.640;2022-11-11T01:27:23;100177.75;;;2.03;95.09
57779;BME280;43608;49.486;9.640;2022-11-11T01:27:53;100190.28;;;2.08;95.24
57779;BME280;43608;49.486;9.640;2022-11-11T01:28:23;100159.22;;;1.98;95.33
57779;BME280;43608;49.486;9.640;2022-11-11T01:28:55;100171.50;;;1.99;95.08
57779;BME280;43608;49.486;9.640;2022-11-11T01:29:25;100177.88;;;2.04;95.26
57779;BME280;43608;49.486;9.640;2022-11-11T01:29:56;100170.75;;;2.02;95.36
57779;BME280;43608;49.486;9.640;2022-11-11T01:30:26;100181.44;;;2.06;95.76
57779;BME280;43608;49.486;9.640;2022-11-11T01:31:09;100177.03;;;2.05;95.71
57779;BME280;43608;49.486;9.640;2022-11-11T01:31:39;100199.34;;;2.15;95.63
57779;BME280;43608;49.486;9.640;2022-11-11T01:32:10;100160.63;;;1.91;95.32
57779;BME280;43608;49.486;9.640;2022-11-11T01:32:40;100183.09;;;2.04;95.48
57779;BME280;43608;49.486;9.640;2022-11-11T01:33:11;100169.59;;;1.96;95.68
57779;BME280;43608;49.486;9.640;2022-11-11T01:33:41;100184.94;;;2.07;95.61
57779;BME280;43608;49.486;9.640;2022-11-11T01:34:12;100192.91;;;2.08;95.58
57779;BME280;43608;49.486;9.640;2022-11-11T01:34:42;100188.56;;;2.09;95.36
57779;BME280;43608;49.486;9.640;2022-11-11T01:35:12;100205.31;;;2.12;95.96
57779;BME280;43608;49.486;9.640;2022-11-11T01:35:43;100200.00;;;2.11;95.60
57779;BME280;43608;49.486;9.640;2022-11-11T01:36:16;100200.91;;;2.11;95.71
57779;BME280;43608;49.486;9.640;2022-11-11T01:36:47;100191.84;;;2.05;95.80
57779;BME280;43608;49.486;9.640;2022-11-11T01:37:17;100179.41;;;2.01;95.56
57779;BME280;43608;49.486;9.640;2022-11-11T01:37:48;100198.88;;;2.06;95.97
57779;BME280;43608;49.486;9.640;2022-11-11T01:38:18;100201.63;;;2.09;95.29
57779;BME280;43608;49.486;9.640;2022-11-11T01:38:50;100186.59;;;2.05;95.73
57779;BME280;43608;49.486;9.640;2022-11-11T01:39:21;100199.75;;;2.06;95.71
57779;BME280;43608;49.486;9.640;2022-11-11T01:39:51;100195.25;;;2.04;95.26
57779;BME280;43608;49.486;9.640;2022-11-11T01:40:22;100198.88;;;2.06;95.51
57779;BME280;43608;49.486;9.640;2022-11-11T01:40:52;100188.88;;;1.98;95.60
57779;BME280;43608;49.486;9.640;2022-11-11T01:41:25;100188.81;;;1.97;95.64
57779;BME280;43608;49.486;9.640;2022-11-11T01:42:02;100186.25;;;1.98;95.94
57779;BME280;43608;49.486;9.640;2022-11-11T01:42:48;100206.63;;;2.04;95.86
57779;BME280;43608;49.486;9.640;2022-11-11T01:43:21;100203.03;;;2.02;95.80
57779;BME280;43608;49.486;9.640;2022-11-11T01:43:52;100199.59;;;2.03;95.50
57779;BME280;43608;49.486;9.640;2022-11-11T01:44:46;100193.22;;;1.98;95.70
57779;BME280;43608;49.486;9.640;2022-11-11T01:45:45;100198.59;;;2.01;95.65
57779;BME280;43608;49.486;9.640;2022-11-11T01:46:27;100197.63;;;1.99;95.46
57779;BME280;43608;49.486;9.640;2022-11-11T01:46:59;100198.44;;;1.98;95.58
57779;BME280;43608;49.486;9.640;2022-11-11T01:47:30;100190.34;;;1.93;95.42
57779;BME280;43608;49.486;9.640;2022-11-11T01:49:33;100163.53;;;1.81;95.53
57779;BME280;43608;49.486;9.640;2022-11-11T01:50:07;100188.47;;;1.91;95.75
57779;BME280;43608;49.486;9.640;2022-11-11T01:50:38;100183.22;;;1.91;95.45
57779;BME280;43608;49.486;9.640;2022-11-11T01:51:22;100193.94;;;1.95;95.37
57779;BME280;43608;49.486;9.640;2022-11-11T01:52:06;100194.75;;;1.94;95.59
57779;BME280;43608;49.486;9.640;2022-11-11T01:52:41;100172.28;;;1.81;95.79
57779;BME280;43608;49.486;9.640;2022-11-11T01:53:14;100188.38;;;1.89;95.44
57779;BME280;43608;49.486;9.640;2022-11-11T01:53:48;100177.44;;;1.80;95.40
57779;BME280;43608;49.486;9.640;2022-11-11T01:55:18;100163.03;;;1.72;95.58
57779;BME280;43608;49.486;9.640;2022-11-11T01:55:50;100187.38;;;1.87;95.58
57779;BME280;43608;49.486;9.640;2022-11-11T01:56:21;100190.25;;;1.92;95.20
57779;BME280;43608;49.486;9.640;2022-11-11T01:57:04;100194.50;;;1.90;95.31
57779;BME280;43608;49.486;9.640;2022-11-11T01:58:11;100208.66;;;1.93;95.41
57779;BME280;43608;49.486;9.640;2022-11-11T01:58:43;100181.91;;;1.83;95.40
57779;BME280;43608;49.486;9.640;2022-11-11T01:59:15;100172.94;;;1.77;95.67
57779;BME280;43608;49.486;9.640;2022-11-11T01:59:49;100185.63;;;1.86;95.70
57779;BME280;43608;49.486;9.640;2022-11-11T02:00:22;100173.00;;;1.79;95.58
57779;BME280;43608;49.486;9.640;2022-11-11T02:00:52;100173.09;;;1.80;95.89
57779;BME280;43608;49.486;9.640;2022-11-11T02:01:23;100192.00;;;1.91;95.40
57779;BME280;43608;49.486;9.640;2022-11-11T02:01:53;100187.66;;;1.92;95.85
57779;BME280;43608;49.486;9.640;2022-11-11T02:02:28;100196.72;;;1.98;95.84
57779;BME280;43608;49.486;9.640;2022-11-11T02:03:05;100203.75;;;2.00;95.86
57779;BME280;43608;49.486;9.640;2022-11-11T02:03:40;100195.91;;;2.00;95.88
57779;BME280;43608;49.486;9.640;2022-11-11T02:04:32;100196.81;;;2.00;95.53
57779;BME280;43608;49.486;9.640;2022-11-11T02:05:22;100184.03;;;1.90;95.23
57779;BME280;43608;49.486;9.640;2022-11-11T02:06:12;100180.53;;;1.89;95.80
57779;BME280;43608;49.486;9.640;2022-11-11T02:06:43;100198.59;;;2.01;95.44
57779;BME280;43608;49.486;9.640;2022-11-11T02:07:14;100122.28;;;1.59;95.56
57779;BME280;43608;49.486;9.640;2022-11-11T02:07:44;100178.66;;;1.87;95.28
57779;BME280;43608;49.486;9.640;2022-11-11T02:08:25;100207.38;;;2.02;95.53
57779;BME280;43608;49.486;9.640;2022-11-11T02:09:03;100180.38;;;1.86;95.11
57779;BME280;43608;49.486;9.640;2022-11-11T02:09:35;100173.16;;;1.82;95.02
57779;BME280;43608;49.486;9.640;2022-11-11T02:10:07;100186.84;;;1.93;95.45
57779;BME280;43608;49.486;9.640;2022-11-11T02:10:41;100201.06;;;1.98;95.42
57779;BME280;43608;49.486;9.640;2022-11-11T02:11:16;100204.66;;;2.00;95.53
57779;BME280;43608;49.486;9.640;2022-11-11T02:12:10;100189.03;;;1.85;95.15
57779;BME280;43608;49.486;9.640;2022-11-11T02:12:59;100177.59;;;1.83;95.07
57779;BME280;43608;49.486;9.640;2022-11-11T02:13:47;100201.72;;;1.94;95.56
57779;BME280;43608;49.486;9.640;2022-11-11T02:14:43;100205.50;;;1.99;95.65
57779;BME280;43608;49.486;9.640;2022-11-11T02:15:14;100206.03;;;1.93;95.27
57779;BME280;43608;49.486;9.640;2022-11-11T02:15:45;100193.53;;;1.88;95.31
57779;BME280;43608;49.486;9.640;2022-11-11T02:16:15;100189.25;;;1.90;95.25
57779;BME280;43608;49.486;9.640;2022-11-11T02:16:46;100201.59;;;1.92;95.37
57779;BME280;43608;49.486;9.640;2022-11-11T02:17:16;100189.13;;;1.87;95.57
57779;BME280;43608;49.486;9.640;2022-11-11T02:17:47;100183.53;;;1.80;95.19
57779;BME280;43608;49.486;9.640;2022-11-11T02:18:18;100199.84;;;1.91;95.55
57779;BME280;43608;49.486;9.640;2022-11-11T02:18:49;100189.84;;;1.84;95.49
57779;BME280;43608;49.486;9.640;2022-11-11T02:19:27;100194.34;;;1.87;95.16
57779;BME280;43608;49.486;9.640;2022-11-11T02:20:02;100213.22;;;1.97;95.33
57779;BME280;43608;49.486;9.640;2022-11-11T02:20:36;100123.53;;;1.51;95.28
57779;BME280;43608;49.486;9.640;2022-11-11T02:21:10;100207.91;;;1.96;95.40
57779;BME280;43608;49.486;9.640;2022-11-11T02:21:50;100199.84;;;1.91;95.60
57779;BME280;43608;49.486;9.640;2022-11-11T02:22:25;100205.22;;;1.94;95.26
57779;BME280;43608;49.486;9.640;2022-11-11T02:23:06;100202.59;;;1.94;95.13
57779;BME280;43608;49.486;9.640;2022-11-11T02:23:40;100199.72;;;1.90;95.40
57779;BME280;43608;49.486;9.640;2022-11-11T02:24:17;100206.94;;;1.94;95.33
57779;BME280;43608;49.486;9.640;2022-11-11T02:24:51;100197.09;;;1.90;95.17
57779;BME280;43608;49.486;9.640;2022-11-11T02:25:25;100199.84;;;1.91;95.16
57779;BME280;43608;49.486;9.640;2022-11-11T02:26:00;100167.53;;;1.74;95.27
57779;BME280;43608;49.486;9.640;2022-11-11T02:26:33;100191.81;;;1.88;94.85
57779;BME280;43608;49.486;9.640;2022-11-11T02:27:09;100190.84;;;1.86;94.78
57779;BME280;43608;49.486;9.640;2022-11-11T02:27:42;100194.69;;;1.93;95.17
57779;BME280;43608;49.486;9.640;2022-11-11T02:28:15;100181.00;;;1.82;95.12
57779;BME280;43608;49.486;9.640;2022-11-11T02:28:47;100196.31;;;1.91;94.98
57779;BME280;43608;49.486;9.640;2022-11-11T02:29:20;100195.41;;;1.90;95.04
57779;BME280;43608;49.486;9.640;2022-11-11T02:29:53;100198.91;;;1.91;95.06
57779;BME280;43608;49.486;9.640;2022-11-11T02:30:24;100181.84;;;1.81;94.79
57779;BME280;43608;49.486;9.640;2022-11-11T02:30:54;100204.97;;;1.90;94.77
57779;BME280;43608;49.486;9.640;2022-11-11T02:31:29;100196.22;;;1.89;95.21
57779;BME280;43608;49.486;9.640;2022-11-11T02:32:00;100187.22;;;1.84;95.01
57779;BME280;43608;49.486;9.640;2022-11-11T02:32:31;100203.19;;;1.89;94.93
57779;BME280;43608;49.486;9.640;2022-11-11T02:33:01;100184.53;;;1.83;94.95
57779;BME280;43608;49.486;9.640;2022-11-11T02:33:32;100189.75;;;1.83;94.67
57779;BME280;43608;49.486;9.640;2022-11-11T02:34:02;100194.41;;;1.88;95.11
57779;BME280;43608;49.486;9.640;2022-11-11T02:34:33;100200.56;;;1.89;95.17
57779;BME280;43608;49.486;9.640;2022-11-11T02:35:11;100168.16;;;1.70;95.16
57779;BME280;43608;49.486;9.640;2022-11-11T02:35:48;100203.91;;;1.86;94.95
57779;BME280;43608;49.486;9.640;2022-11-11T02:36:26;100189.84;;;1.84;95.20
57779;BME280;43608;49.486;9.640;2022-11-11T02:36:58;100198.69;;;1.86;95.17
57779;BME280;43608;49.486;9.640;2022-11-11T02:37:30;100198.75;;;1.88;94.94
57779;BME280;43608;49.486;9.640;2022-11-11T02:38:04;100189.03;;;1.85;95.28
57779;BME280;43608;49.486;9.640;2022-11-11T02:38:37;100190.66;;;1.83;95.30
57779;BME280;43608;49.486;9.640;2022-11-11T02:39:08;100175.38;;;1.74;95.29
57779;BME280;43608;49.486;9.640;2022-11-11T02:39:43;100195.34;;;1.89;95.32
57779;BME280;43608;49.486;9.640;2022-11-11T02:40:39;100200.56;;;1.89;95.36
57779;BME280;43608;49.486;9.640;2022-11-11T02:41:32;100192.59;;;1.87;95.29
57779;BME280;43608;49.486;9.640;2022-11-11T02:42:22;100172.00;;;1.77;95.12
57779;BME280;43608;49.486;9.640;2022-11-11T02:42:53;100194.50;;;1.90;95.48
57779;BME280;43608;49.486;9.640;2022-11-11T02:43:23;100174.97;;;1.83;95.13
57779;BME280;43608;49.486;9.640;2022-11-11T02:43:53;100180.38;;;1.86;95.37
57779;BME280;43608;49.486;9.640;2022-11-11T02:44:25;100181.19;;;1.85;95.26
57779;BME280;43608;49.486;9.640;2022-11-11T02:44:55;100185.69;;;1.88;95.23
57779;BME280;43608;49.486;9.640;2022-11-11T02:45:27;100186.66;;;1.90;95.54
57779;BME280;43608;49.486;9.640;2022-11-11T02:45:59;100187.72;;;1.93;95.39
57779;BME280;43608;49.486;9.640;2022-11-11T02:46:31;100187.72;;;1.93;95.59
57779;BME280;43608;49.486;9.640;2022-11-11T02:47:01;100186.75;;;1.91;95.62
57779;BME280;43608;49.486;9.640;2022-11-11T02:47:31;100173.34;;;1.85;95.47
57779;BME280;43608;49.486;9.640;2022-11-11T02:48:02;100176.94;;;1.87;95.79
57779;BME280;43608;49.486;9.640;2022-11-11T02:48:32;100184.88;;;1.89;95.71
57779;BME280;43608;49.486;9.640;2022-11-11T02:49:03;100181.41;;;1.90;95.85
57779;BME280;43608;49.486;9.640;2022-11-11T02:49:33;100192.06;;;1.93;95.62
57779;BME280;43608;49.486;9.640;2022-11-11T02:50:07;100187.66;;;1.92;95.72
57779;BME280;43608;49.486;9.640;2022-11-11T02:50:37;100191.88;;;1.90;95.69
57779;BME280;43608;49.486;9.640;2022-11-11T02:51:08;100154.22;;;1.70;95.74
57779;BME280;43608;49.486;9.640;2022-11-11T02:51:38;100189.91;;;1.86;95.73
57779;BME280;43608;49.486;9.640;2022-11-11T02:52:08;100179.97;;;1.78;95.74
57779;BME280;43608;49.486;9.640;2022-11-11T02:52:39;100195.97;;;1.85;95.73
57779;BME280;43608;49.486;9.640;2022-11-11T02:53:09;100187.16;;;1.83;95.58
57779;BME280;43608;49.486;9.640;2022-11-11T02:53:40;100164.66;;;1.70;95.43
57779;BME280;43608;49.486;9.640;2022-11-11T02:54:10;100196.88;;;1.85;95.52
57779;BME280;43608;49.486;9.640;2022-11-11T02:54:40;100195.88;;;1.83;95.84
57779;BME280;43608;49.486;9.640;2022-11-11T02:55:12;100161.69;;;1.63;95.70
57779;BME280;43608;49.486;9.640;2022-11-11T02:55:43;100210.09;;;1.88;95.90
57779;BME280;43608;49.486;9.640;2022-11-11T02:56:13;100199.50;;;1.85;95.92
57779;BME280;43608;49.486;9.640;2022-11-11T02:57:04;100203.66;;;1.81;95.24
57779;BME280;43608;49.486;9.640;2022-11-11T02:57:37;100180.25;;;1.68;95.49
57779;BME280;43608;49.486;9.640;2022-11-11T02:58:08;100189.19;;;1.72;95.37
57779;BME280;43608;49.486;9.640;2022-11-11T02:58:38;100215.00;;;1.82;95.21
57779;BME280;43608;49.486;9.640;2022-11-11T02:59:09;100171.34;;;1.64;95.65
57779;BME280;43608;49.486;9.640;2022-11-11T02:59:39;100203.56;;;1.80;95.55
57779;BME280;43608;49.486;9.640;2022-11-11T03:00:11;100215.97;;;1.84;95.47
57779;BME280;43608;49.486;9.640;2022-11-11T03:00:41;100209.75;;;1.82;95.56
57779;BME280;43608;49.486;9.640;2022-11-11T03:01:12;100212.38;;;1.82;95.62
57779;BME280;43608;49.486;9.640;2022-11-11T03:01:42;100212.50;;;1.84;95.74
57779;BME280;43608;49.486;9.640;2022-11-11T03:02:12;100192.84;;;1.75;95.53
57779;BME280;43608;49.486;9.640;2022-11-11T03:02:43;100203.56;;;1.80;95.72